Ruby, VA (22545)

8:39 AM EDT on September 04, 2015 (GMT -0400)
KVASTAFF12 | | Change Station
CLOSE
Current Station
Personal Weather Station
Location: N4JOW Stafford, VA
Elevation: 402 ft
Nearby Weather Stations

Elev 402 ft 38.50 °N, 77.57 °W | Updated 23 seconds ago

Clear
Clear
73.2 °F
Feels Like 73.2 °F
N
0.0
Wind Variable Wind from WSW
Gusts 1.0 mph

Today
High -- | Low -- °F
--% Chance of Precip.
Yesterday
High -- | Low -- °F
Precip. -- in
6:41 AM 7:35 PM
Waning Gibbous, 60% visible
Pressure 30.03 in
Visibility 7.0 miles
Clouds Clear
Dew Point 73 °F
Humidity 100%
Rainfall Not available.
Snow Depth Not available.
UV 1 out of 12
Pollen 7.30 out of 12
Air Quality Not available.
Flu Activity Not available.
METAR KRMN 041215Z AUTO 35005KT 7SM CLR 24/20 A3003 RMK AO2 T02410203
Pressure 30.03 in
Visibility 7.0 miles
Clouds Clear
Dew Point 73 °F
Humidity 100%
Rainfall Not available.
Snow Depth Not available.
UV 1 out of 12
Pollen 7.30 out of 12
Air Quality Not available.
Flu Activity Not available.
METAR KRMN 041215Z AUTO 35005KT 7SM CLR 24/20 A3003 RMK AO2 T02410203

10-Day Weather Forecast

×

Almanac

Astronomy

Sep. 04, 2015 Rise Set
Actual Time
Civil Twilight
Nautical Twilight
Astronomical Twilight
Moon
Length of Visible Light
Length of Day
Tomorrow will be .
, % of the Moon is Illuminated

Today's Extremes

State Highs State Lows

Community

WunderPhotos

Upload Photos

1,852,170 photos uploaded!

WunderBlogs® & News

Nearby

Air Quality

  Air Quality AQ Index Pollutant
Not available.

Snow Depth

Station Depth Elevation

Earthquake Activity

City Distance Mag. Time & Date
Minimum magnitude displayed is 2.5.

Coastal Water Temperatures

Place Temperature

Stations

Nearby Weather Stations

Station Location Temp. Windchill Dew Point Humidity Wind Precip. Elev Updated Type